sensor_id;sensor_type;location;lat;lon;timestamp;temperature;humidity
5419;DHT22;2732;52.092;11.556;2023-08-24T00:04:07;18.00;99.90
5419;DHT22;2732;52.092;11.556;2023-08-24T00:09:09;18.00;99.90
5419;DHT22;2732;52.092;11.556;2023-08-24T00:14:11;18.00;99.90
5419;DHT22;2732;52.092;11.556;2023-08-24T00:19:13;17.90;99.90
5419;DHT22;2732;52.092;11.556;2023-08-24T00:24:14;17.80;99.90
5419;DHT22;2732;52.092;11.556;2023-08-24T00:29:14;17.80;99.90
5419;DHT22;2732;52.092;11.556;2023-08-24T00:34:15;17.80;99.90
5419;DHT22;2732;52.092;11.556;2023-08-24T00:39:16;17.80;99.90
5419;DHT22;2732;52.092;11.556;2023-08-24T00:44:17;17.70;99.90
5419;DHT22;2732;52.092;11.556;2023-08-24T00:49:17;17.70;99.90
5419;DHT22;2732;52.092;11.556;2023-08-24T00:54:18;17.70;99.90
5419;DHT22;2732;52.092;11.556;2023-08-24T00:59:19;17.70;99.90
5419;DHT22;2732;52.092;11.556;2023-08-24T01:04:20;17.70;99.90
5419;DHT22;2732;52.092;11.556;2023-08-24T01:09:21;17.70;99.90
5419;DHT22;2732;52.092;11.556;2023-08-24T01:14:41;17.60;99.90
5419;DHT22;2732;52.092;11.556;2023-08-24T01:19:47;17.60;99.90
5419;DHT22;2732;52.092;11.556;2023-08-24T01:24:58;17.60;99.90
5419;DHT22;2732;52.092;11.556;2023-08-24T01:30:02;17.60;99.90
5419;DHT22;2732;52.092;11.556;2023-08-24T01:35:06;17.50;99.90
5419;DHT22;2732;52.092;11.556;2023-08-24T01:40:26;17.50;99.90
5419;DHT22;2732;52.092;11.556;2023-08-24T01:45:34;17.50;99.90
5419;DHT22;2732;52.092;11.556;2023-08-24T01:50:34;17.50;99.90
5419;DHT22;2732;52.092;11.556;2023-08-24T01:55:36;17.50;99.90
5419;DHT22;2732;52.092;11.556;2023-08-24T02:00:36;17.50;99.90
5419;DHT22;2732;52.092;11.556;2023-08-24T02:05:37;17.50;99.90
5419;DHT22;2732;52.092;11.556;2023-08-24T02:10:37;17.50;99.90
5419;DHT22;2732;52.092;11.556;2023-08-24T02:15:38;17.40;99.90
5419;DHT22;2732;52.092;11.556;2023-08-24T02:20:40;17.40;99.90
5419;DHT22;2732;52.092;11.556;2023-08-24T02:25:44;17.40;99.90
5419;DHT22;2732;52.092;11.556;2023-08-24T02:30:45;17.30;99.90
5419;DHT22;2732;52.092;11.556;2023-08-24T02:35:48;17.30;99.90
5419;DHT22;2732;52.092;11.556;2023-08-24T02:40:49;17.30;99.90
5419;DHT22;2732;52.092;11.556;2023-08-24T02:45:52;17.30;99.90
5419;DHT22;2732;52.092;11.556;2023-08-24T02:50:54;17.30;99.90
5419;DHT22;2732;52.092;11.556;2023-08-24T02:55:55;17.30;99.90
5419;DHT22;2732;52.092;11.556;2023-08-24T03:00:56;17.30;99.90
5419;DHT22;2732;52.092;11.556;2023-08-24T03:05:59;17.30;99.90
5419;DHT22;2732;52.092;11.556;2023-08-24T03:11:02;17.20;99.90
5419;DHT22;2732;52.092;11.556;2023-08-24T03:16:04;17.20;99.90
5419;DHT22;2732;52.092;11.556;2023-08-24T03:21:05;17.20;99.90
5419;DHT22;2732;52.092;11.556;2023-08-24T03:26:06;17.20;99.90
5419;DHT22;2732;52.092;11.556;2023-08-24T03:31:07;17.20;99.90
5419;DHT22;2732;52.092;11.556;2023-08-24T03:36:08;17.10;99.90
5419;DHT22;2732;52.092;11.556;2023-08-24T03:41:08;17.10;99.90
5419;DHT22;2732;52.092;11.556;2023-08-24T03:46:09;17.10;99.90
5419;DHT22;2732;52.092;11.556;2023-08-24T03:51:09;17.10;99.90
5419;DHT22;2732;52.092;11.556;2023-08-24T03:56:12;17.00;99.90
5419;DHT22;2732;52.092;11.556;2023-08-24T04:01:13;17.00;99.90
5419;DHT22;2732;52.092;11.556;2023-08-24T04:06:14;17.00;99.90
5419;DHT22;2732;52.092;11.556;2023-08-24T04:11:14;17.00;99.90
5419;DHT22;2732;52.092;11.556;2023-08-24T04:16:15;17.00;99.90
5419;DHT22;2732;52.092;11.556;2023-08-24T04:21:16;17.00;99.90
5419;DHT22;2732;52.092;11.556;2023-08-24T04:26:17;17.00;99.90
5419;DHT22;2732;52.092;11.556;2023-08-24T04:31:17;17.00;99.90
5419;DHT22;2732;52.092;11.556;2023-08-24T04:36:18;17.00;99.90
5419;DHT22;2732;52.092;11.556;2023-08-24T04:41:19;17.00;99.90
5419;DHT22;2732;52.092;11.556;2023-08-24T04:46:19;16.90;99.90
5419;DHT22;2732;52.092;11.556;2023-08-24T04:51:20;17.00;99.90
5419;DHT22;2732;52.092;11.556;2023-08-24T04:56:20;17.00;99.90
5419;DHT22;2732;52.092;11.556;2023-08-24T05:01:21;17.00;99.90
5419;DHT22;2732;52.092;11.556;2023-08-24T05:06:22;17.00;99.90
5419;DHT22;2732;52.092;11.556;2023-08-24T05:11:24;17.00;99.90
5419;DHT22;2732;52.092;11.556;2023-08-24T05:16:26;17.10;99.90
5419;DHT22;2732;52.092;11.556;2023-08-24T05:21:28;17.10;99.90
5419;DHT22;2732;52.092;11.556;2023-08-24T05:26:29;17.20;99.90
5419;DHT22;2732;52.092;11.556;2023-08-24T05:31:32;17.20;99.90
5419;DHT22;2732;52.092;11.556;2023-08-24T05:36:33;17.30;99.90
5419;DHT22;2732;52.092;11.556;2023-08-24T05:41:34;17.40;99.90
5419;DHT22;2732;52.092;11.556;2023-08-24T05:46:37;17.50;99.90
5419;DHT22;2732;52.092;11.556;2023-08-24T05:51:37;17.60;99.90
5419;DHT22;2732;52.092;11.556;2023-08-24T05:56:38;17.60;99.90
5419;DHT22;2732;52.092;11.556;2023-08-24T06:01:38;17.70;99.90
5419;DHT22;2732;52.092;11.556;2023-08-24T06:06:39;17.80;99.90
5419;DHT22;2732;52.092;11.556;2023-08-24T06:11:40;17.90;99.90
5419;DHT22;2732;52.092;11.556;2023-08-24T06:16:41;18.00;99.90
5419;DHT22;2732;52.092;11.556;2023-08-24T06:21:41;18.10;99.90
5419;DHT22;2732;52.092;11.556;2023-08-24T06:26:42;18.20;99.90
5419;DHT22;2732;52.092;11.556;2023-08-24T06:31:42;18.40;99.90
5419;DHT22;2732;52.092;11.556;2023-08-24T06:36:43;18.50;99.90
5419;DHT22;2732;52.092;11.556;2023-08-24T06:41:44;18.70;99.90
5419;DHT22;2732;52.092;11.556;2023-08-24T06:46:44;18.90;99.90
5419;DHT22;2732;52.092;11.556;2023-08-24T06:51:46;19.30;99.90
5419;DHT22;2732;52.092;11.556;2023-08-24T06:56:47;19.70;99.90
5419;DHT22;2732;52.092;11.556;2023-08-24T07:01:48;20.10;99.90
5419;DHT22;2732;52.092;11.556;2023-08-24T07:06:48;20.40;99.90
5419;DHT22;2732;52.092;11.556;2023-08-24T07:11:49;20.80;99.90
5419;DHT22;2732;52.092;11.556;2023-08-24T07:16:50;21.00;99.90
5419;DHT22;2732;52.092;11.556;2023-08-24T07:21:53;21.30;99.90
5419;DHT22;2732;52.092;11.556;2023-08-24T07:26:53;21.60;99.90
5419;DHT22;2732;52.092;11.556;2023-08-24T07:31:54;21.90;99.90
5419;DHT22;2732;52.092;11.556;2023-08-24T07:36:55;22.10;99.90
5419;DHT22;2732;52.092;11.556;2023-08-24T07:41:56;22.20;99.90
5419;DHT22;2732;52.092;11.556;2023-08-24T07:46:56;22.30;99.90
5419;DHT22;2732;52.092;11.556;2023-08-24T07:51:57;22.50;99.90
5419;DHT22;2732;52.092;11.556;2023-08-24T07:56:58;22.70;99.90
5419;DHT22;2732;52.092;11.556;2023-08-24T08:01:59;23.10;99.90
5419;DHT22;2732;52.092;11.556;2023-08-24T08:07:00;23.40;99.90
5419;DHT22;2732;52.092;11.556;2023-08-24T08:12:00;23.60;99.90
5419;DHT22;2732;52.092;11.556;2023-08-24T08:17:01;23.80;99.90
5419;DHT22;2732;52.092;11.556;2023-08-24T08:22:02;23.90;99.90
5419;DHT22;2732;52.092;11.556;2023-08-24T08:27:02;24.00;99.90
5419;DHT22;2732;52.092;11.556;2023-08-24T08:32:03;24.10;99.90
5419;DHT22;2732;52.092;11.556;2023-08-24T08:37:06;24.20;99.90
5419;DHT22;2732;52.092;11.556;2023-08-24T08:42:11;24.50;99.90
5419;DHT22;2732;52.092;11.556;2023-08-24T08:47:14;24.60;99.90
5419;DHT22;2732;52.092;11.556;2023-08-24T08:52:15;24.70;99.90
5419;DHT22;2732;52.092;11.556;2023-08-24T08:57:16;25.00;99.90
5419;DHT22;2732;52.092;11.556;2023-08-24T09:02:20;25.70;99.90
5419;DHT22;2732;52.092;11.556;2023-08-24T09:07:22;26.00;99.90
5419;DHT22;2732;52.092;11.556;2023-08-24T09:12:24;26.60;99.90
5419;DHT22;2732;52.092;11.556;2023-08-24T09:17:25;27.30;99.10
5419;DHT22;2732;52.092;11.556;2023-08-24T09:22:25;27.30;98.80
5419;DHT22;2732;52.092;11.556;2023-08-24T09:27:26;27.20;98.40
5419;DHT22;2732;52.092;11.556;2023-08-24T09:32:28;27.20;98.60
5419;DHT22;2732;52.092;11.556;2023-08-24T09:37:40;27.70;97.60
5419;DHT22;2732;52.092;11.556;2023-08-24T09:42:43;28.20;97.10
5419;DHT22;2732;52.092;11.556;2023-08-24T09:47:51;28.70;96.30
5419;DHT22;2732;52.092;11.556;2023-08-24T09:52:53;29.40;95.50
5419;DHT22;2732;52.092;11.556;2023-08-24T09:57:59;29.60;94.90
5419;DHT22;2732;52.092;11.556;2023-08-24T10:03:01;29.30;95.10
5419;DHT22;2732;52.092;11.556;2023-08-24T10:08:04;29.20;95.10
5419;DHT22;2732;52.092;11.556;2023-08-24T10:13:17;29.10;95.10
5419;DHT22;2732;52.092;11.556;2023-08-24T10:18:44;29.10;94.80
5419;DHT22;2732;52.092;11.556;2023-08-24T10:23:45;29.20;93.90
5419;DHT22;2732;52.092;11.556;2023-08-24T10:28:46;29.30;94.10
5419;DHT22;2732;52.092;11.556;2023-08-24T10:33:48;29.30;93.30
5419;DHT22;2732;52.092;11.556;2023-08-24T10:38:49;29.40;93.30
5419;DHT22;2732;52.092;11.556;2023-08-24T10:43:50;29.40;93.10
5419;DHT22;2732;52.092;11.556;2023-08-24T10:48:57;29.50;92.80
5419;DHT22;2732;52.092;11.556;2023-08-24T10:54:01;29.50;92.50
5419;DHT22;2732;52.092;11.556;2023-08-24T10:59:19;29.70;92.10
5419;DHT22;2732;52.092;11.556;2023-08-24T11:04:21;29.90;92.10
5419;DHT22;2732;52.092;11.556;2023-08-24T11:14:51;30.40;91.50
5419;DHT22;2732;52.092;11.556;2023-08-24T11:19:54;30.80;91.20
5419;DHT22;2732;52.092;11.556;2023-08-24T11:24:55;31.40;90.40
5419;DHT22;2732;52.092;11.556;2023-08-24T11:30:00;31.60;90.10
5419;DHT22;2732;52.092;11.556;2023-08-24T11:35:02;31.50;89.40
5419;DHT22;2732;52.092;11.556;2023-08-24T11:40:16;31.60;88.20
5419;DHT22;2732;52.092;11.556;2023-08-24T11:45:17;31.80;87.10
5419;DHT22;2732;52.092;11.556;2023-08-24T11:50:19;32.30;85.50
5419;DHT22;2732;52.092;11.556;2023-08-24T11:55:24;32.80;82.90
5419;DHT22;2732;52.092;11.556;2023-08-24T12:00:25;32.90;81.30
5419;DHT22;2732;52.092;11.556;2023-08-24T12:05:27;33.00;81.10
5419;DHT22;2732;52.092;11.556;2023-08-24T12:10:28;33.00;79.90
5419;DHT22;2732;52.092;11.556;2023-08-24T12:15:29;33.20;78.50
5419;DHT22;2732;52.092;11.556;2023-08-24T12:20:30;33.40;78.00
5419;DHT22;2732;52.092;11.556;2023-08-24T12:25:31;33.90;76.20
5419;DHT22;2732;52.092;11.556;2023-08-24T12:30:49;34.50;75.30
5419;DHT22;2732;52.092;11.556;2023-08-24T12:35:52;34.80;72.80
5419;DHT22;2732;52.092;11.556;2023-08-24T12:40:54;35.00;72.20
5419;DHT22;2732;52.092;11.556;2023-08-24T12:45:55;35.00;70.30
5419;DHT22;2732;52.092;11.556;2023-08-24T12:50:55;35.10;70.50
5419;DHT22;2732;52.092;11.556;2023-08-24T12:55:56;35.30;68.90
5419;DHT22;2732;52.092;11.556;2023-08-24T13:00:57;35.50;67.80
5419;DHT22;2732;52.092;11.556;2023-08-24T13:05:57;35.60;66.80
5419;DHT22;2732;52.092;11.556;2023-08-24T13:10:58;35.80;66.60
5419;DHT22;2732;52.092;11.556;2023-08-24T13:15:59;35.80;65.60
5419;DHT22;2732;52.092;11.556;2023-08-24T13:21:00;35.70;64.70
5419;DHT22;2732;52.092;11.556;2023-08-24T13:26:01;35.70;64.80
5419;DHT22;2732;52.092;11.556;2023-08-24T13:31:01;35.70;64.00
5419;DHT22;2732;52.092;11.556;2023-08-24T13:36:02;35.80;62.30
5419;DHT22;2732;52.092;11.556;2023-08-24T13:41:03;35.80;62.40
5419;DHT22;2732;52.092;11.556;2023-08-24T13:46:04;35.80;62.40
5419;DHT22;2732;52.092;11.556;2023-08-24T13:51:04;35.60;61.40
5419;DHT22;2732;52.092;11.556;2023-08-24T13:56:06;35.30;63.20
5419;DHT22;2732;52.092;11.556;2023-08-24T14:01:07;35.20;62.60
5419;DHT22;2732;52.092;11.556;2023-08-24T14:06:10;34.90;63.40
5419;DHT22;2732;52.092;11.556;2023-08-24T14:11:11;34.70;63.40
5419;DHT22;2732;52.092;11.556;2023-08-24T14:16:12;34.50;64.30
5419;DHT22;2732;52.092;11.556;2023-08-24T14:21:12;34.30;65.30
5419;DHT22;2732;52.092;11.556;2023-08-24T14:26:13;34.50;64.80
5419;DHT22;2732;52.092;11.556;2023-08-24T14:31:14;34.70;62.50
5419;DHT22;2732;52.092;11.556;2023-08-24T14:36:19;34.80;61.20
5419;DHT22;2732;52.092;11.556;2023-08-24T14:41:23;34.90;59.40
5419;DHT22;2732;52.092;11.556;2023-08-24T14:46:23;34.80;58.90
5419;DHT22;2732;52.092;11.556;2023-08-24T14:51:24;34.60;59.40
5419;DHT22;2732;52.092;11.556;2023-08-24T14:56:25;34.40;59.60
5419;DHT22;2732;52.092;11.556;2023-08-24T15:01:25;34.10;59.30
5419;DHT22;2732;52.092;11.556;2023-08-24T15:06:27;33.80;59.00
5419;DHT22;2732;52.092;11.556;2023-08-24T15:11:27;33.50;59.20
5419;DHT22;2732;52.092;11.556;2023-08-24T15:16:28;33.30;59.20
5419;DHT22;2732;52.092;11.556;2023-08-24T15:21:28;33.20;59.40
5419;DHT22;2732;52.092;11.556;2023-08-24T15:26:29;33.10;58.80
5419;DHT22;2732;52.092;11.556;2023-08-24T15:31:30;32.90;59.30
5419;DHT22;2732;52.092;11.556;2023-08-24T15:36:30;32.80;60.30
5419;DHT22;2732;52.092;11.556;2023-08-24T15:41:31;32.80;60.00
5419;DHT22;2732;52.092;11.556;2023-08-24T15:46:31;32.90;60.30
5419;DHT22;2732;52.092;11.556;2023-08-24T15:51:32;32.90;61.50
5419;DHT22;2732;52.092;11.556;2023-08-24T15:56:33;32.80;62.20
5419;DHT22;2732;52.092;11.556;2023-08-24T16:01:33;32.50;62.20
5419;DHT22;2732;52.092;11.556;2023-08-24T16:06:34;32.30;62.60
5419;DHT22;2732;52.092;11.556;2023-08-24T16:11:35;32.10;62.80
5419;DHT22;2732;52.092;11.556;2023-08-24T16:16:36;31.90;62.80
5419;DHT22;2732;52.092;11.556;2023-08-24T16:21:36;31.80;62.10
5419;DHT22;2732;52.092;11.556;2023-08-24T16:26:37;31.60;62.50
5419;DHT22;2732;52.092;11.556;2023-08-24T16:31:40;31.40;62.80
5419;DHT22;2732;52.092;11.556;2023-08-24T16:36:40;31.30;63.80
5419;DHT22;2732;52.092;11.556;2023-08-24T16:41:41;31.10;64.00
5419;DHT22;2732;52.092;11.556;2023-08-24T16:46:42;30.90;65.10
5419;DHT22;2732;52.092;11.556;2023-08-24T16:51:43;30.70;66.10
5419;DHT22;2732;52.092;11.556;2023-08-24T16:56:43;30.50;67.50
5419;DHT22;2732;52.092;11.556;2023-08-24T17:01:44;30.40;67.80
5419;DHT22;2732;52.092;11.556;2023-08-24T17:06:45;30.10;68.50
5419;DHT22;2732;52.092;11.556;2023-08-24T17:11:46;30.00;69.00
5419;DHT22;2732;52.092;11.556;2023-08-24T17:16:47;29.80;69.90
5419;DHT22;2732;52.092;11.556;2023-08-24T17:21:47;29.50;70.90
5419;DHT22;2732;52.092;11.556;2023-08-24T17:26:50;29.40;71.90
5419;DHT22;2732;52.092;11.556;2023-08-24T17:31:50;29.20;72.40
5419;DHT22;2732;52.092;11.556;2023-08-24T17:36:51;29.00;72.30
5419;DHT22;2732;52.092;11.556;2023-08-24T17:41:51;28.80;73.40
5419;DHT22;2732;52.092;11.556;2023-08-24T17:46:52;28.60;74.40
5419;DHT22;2732;52.092;11.556;2023-08-24T17:51:53;28.40;74.90
5419;DHT22;2732;52.092;11.556;2023-08-24T17:56:53;28.20;75.90
5419;DHT22;2732;52.092;11.556;2023-08-24T18:01:54;28.10;77.10
5419;DHT22;2732;52.092;11.556;2023-08-24T18:06:55;27.80;78.60
5419;DHT22;2732;52.092;11.556;2023-08-24T18:11:55;27.70;79.70
5419;DHT22;2732;52.092;11.556;2023-08-24T18:16:56;27.50;80.40
5419;DHT22;2732;52.092;11.556;2023-08-24T18:21:57;27.40;81.30
5419;DHT22;2732;52.092;11.556;2023-08-24T18:26:58;27.20;81.90
5419;DHT22;2732;52.092;11.556;2023-08-24T18:31:58;27.10;82.10
5419;DHT22;2732;52.092;11.556;2023-08-24T18:36:59;27.00;82.20
5419;DHT22;2732;52.092;11.556;2023-08-24T18:42:00;26.80;82.60
5419;DHT22;2732;52.092;11.556;2023-08-24T18:47:01;26.70;81.90
5419;DHT22;2732;52.092;11.556;2023-08-24T18:52:02;26.60;81.90
5419;DHT22;2732;52.092;11.556;2023-08-24T18:57:03;26.50;82.30
5419;DHT22;2732;52.092;11.556;2023-08-24T19:02:03;26.40;82.60
5419;DHT22;2732;52.092;11.556;2023-08-24T19:07:04;26.30;83.30
5419;DHT22;2732;52.092;11.556;2023-08-24T19:12:08;26.20;83.50
5419;DHT22;2732;52.092;11.556;2023-08-24T19:17:10;26.10;83.90
5419;DHT22;2732;52.092;11.556;2023-08-24T19:22:11;26.00;84.00
5419;DHT22;2732;52.092;11.556;2023-08-24T19:27:12;25.90;84.70
5419;DHT22;2732;52.092;11.556;2023-08-24T19:32:13;25.80;84.60
5419;DHT22;2732;52.092;11.556;2023-08-24T19:37:13;25.70;84.70
5419;DHT22;2732;52.092;11.556;2023-08-24T19:42:14;25.70;84.70
5419;DHT22;2732;52.092;11.556;2023-08-24T19:47:15;25.60;84.70
5419;DHT22;2732;52.092;11.556;2023-08-24T19:52:15;25.50;85.40
5419;DHT22;2732;52.092;11.556;2023-08-24T19:57:16;25.40;86.20
5419;DHT22;2732;52.092;11.556;2023-08-24T20:02:17;25.30;87.30
5419;DHT22;2732;52.092;11.556;2023-08-24T20:07:18;25.20;88.20
5419;DHT22;2732;52.092;11.556;2023-08-24T20:12:20;25.10;89.20
5419;DHT22;2732;52.092;11.556;2023-08-24T20:17:21;25.00;90.30
5419;DHT22;2732;52.092;11.556;2023-08-24T20:22:22;24.90;90.70
5419;DHT22;2732;52.092;11.556;2023-08-24T20:27:22;24.90;91.20
5419;DHT22;2732;52.092;11.556;2023-08-24T20:32:23;24.80;91.30
5419;DHT22;2732;52.092;11.556;2023-08-24T20:37:24;24.70;91.30
5419;DHT22;2732;52.092;11.556;2023-08-24T20:42:25;24.60;91.40
5419;DHT22;2732;52.092;11.556;2023-08-24T20:47:27;24.60;91.60
5419;DHT22;2732;52.092;11.556;2023-08-24T20:52:28;24.50;91.60
5419;DHT22;2732;52.092;11.556;2023-08-24T20:57:28;24.50;91.90
5419;DHT22;2732;52.092;11.556;2023-08-24T21:02:29;24.40;92.00
5419;DHT22;2732;52.092;11.556;2023-08-24T21:07:32;24.30;92.30
5419;DHT22;2732;52.092;11.556;2023-08-24T21:12:33;24.20;93.00
5419;DHT22;2732;52.092;11.556;2023-08-24T21:17:34;24.20;93.50
5419;DHT22;2732;52.092;11.556;2023-08-24T21:22:35;24.10;93.80
5419;DHT22;2732;52.092;11.556;2023-08-24T21:27:35;24.10;94.00
5419;DHT22;2732;52.092;11.556;2023-08-24T21:32:36;24.00;94.40
5419;DHT22;2732;52.092;11.556;2023-08-24T21:37:37;24.00;94.80
5419;DHT22;2732;52.092;11.556;2023-08-24T21:42:37;23.90;95.50
5419;DHT22;2732;52.092;11.556;2023-08-24T21:47:38;23.80;96.30
5419;DHT22;2732;52.092;11.556;2023-08-24T21:52:39;23.70;97.00
5419;DHT22;2732;52.092;11.556;2023-08-24T21:57:39;23.70;97.70
5419;DHT22;2732;52.092;11.556;2023-08-24T22:02:40;23.60;98.20
5419;DHT22;2732;52.092;11.556;2023-08-24T22:07:41;23.60;98.30
5419;DHT22;2732;52.092;11.556;2023-08-24T22:12:42;23.60;98.80
5419;DHT22;2732;52.092;11.556;2023-08-24T22:17:43;23.50;99.10
5419;DHT22;2732;52.092;11.556;2023-08-24T22:22:44;23.40;99.10
5419;DHT22;2732;52.092;11.556;2023-08-24T22:27:45;23.40;99.50
5419;DHT22;2732;52.092;11.556;2023-08-24T22:32:46;23.40;99.90
5419;DHT22;2732;52.092;11.556;2023-08-24T22:37:47;23.30;99.90
5419;DHT22;2732;52.092;11.556;2023-08-24T22:42:48;23.30;99.90
5419;DHT22;2732;52.092;11.556;2023-08-24T22:47:48;23.20;99.90
5419;DHT22;2732;52.092;11.556;2023-08-24T22:52:50;23.20;99.90
5419;DHT22;2732;52.092;11.556;2023-08-24T22:57:50;23.20;99.90
5419;DHT22;2732;52.092;11.556;2023-08-24T23:02:51;23.10;99.90
5419;DHT22;2732;52.092;11.556;2023-08-24T23:07:51;23.10;99.90
5419;DHT22;2732;52.092;11.556;2023-08-24T23:12:52;23.10;99.90
5419;DHT22;2732;52.092;11.556;2023-08-24T23:17:53;23.00;99.90
5419;DHT22;2732;52.092;11.556;2023-08-24T23:22:54;23.00;99.90
5419;DHT22;2732;52.092;11.556;2023-08-24T23:27:55;23.00;99.90
5419;DHT22;2732;52.092;11.556;2023-08-24T23:32:56;23.00;99.90
5419;DHT22;2732;52.092;11.556;2023-08-24T23:37:56;23.00;99.90
5419;DHT22;2732;52.092;11.556;2023-08-24T23:42:57;23.00;99.90
5419;DHT22;2732;52.092;11.556;2023-08-24T23:47:58;23.00;99.90
5419;DHT22;2732;52.092;11.556;2023-08-24T23:52:58;23.00;99.90
5419;DHT22;2732;52.092;11.556;2023-08-24T23:57:59;22.90;99.90
